Time;durP1;ratioP1;P1;durP2;ratioP2;P2;SDS_P1;SDS_P2;PMS_P1;PMS_P2;Temp;Humidity;BMP_temperature;BMP_pressure;BME280_temperature;BME280_humidity;BME280_pressure;Samples;Min_cycle;Max_cycle;Signal;HPM_P1;HPM_P2
2022/04/25 00:00:05;;;;;;;17.60;9.40;;;8.50;99.90;;;;;;5060315;28;38876;-80
2022/04/25 00:02:31;;;;;;;13.30;9.30;;;8.50;99.90;;;;;;5045808;28;37954;-79
2022/04/25 00:04:57;;;;;;;14.70;8.33;;;8.50;99.90;;;;;;5066005;28;38747;-80
2022/04/25 00:07:23;;;;;;;13.20;9.43;;;8.50;99.90;;;;;;5070283;28;37693;-79
2022/04/25 00:09:49;;;;;;;12.33;8.37;;;8.50;99.90;;;;;;5051862;28;37825;-80
2022/04/25 00:12:16;;;;;;;15.20;9.47;;;8.50;99.90;;;;;;5063972;28;39127;-78
2022/04/25 00:14:42;;;;;;;12.53;8.60;;;8.50;99.90;;;;;;5065386;28;37243;-79
2022/04/25 00:17:08;;;;;;;16.23;8.80;;;8.50;99.90;;;;;;5062811;28;36402;-82
2022/04/25 00:19:35;;;;;;;11.10;8.40;;;8.50;99.90;;;;;;5061123;28;38340;-82
2022/04/25 00:22:02;;;;;;;16.10;8.97;;;8.40;99.90;;;;;;5042067;28;39187;-81
2022/04/25 00:24:28;;;;;;;17.63;9.67;;;8.40;99.90;;;;;;5048363;28;37385;-79
2022/04/25 00:26:54;;;;;;;17.33;9.53;;;8.50;99.90;;;;;;5046474;28;35909;-79
2022/04/25 00:29:21;;;;;;;14.27;9.93;;;8.50;99.90;;;;;;5060501;28;39104;-79
2022/04/25 00:31:47;;;;;;;14.17;9.47;;;8.40;99.90;;;;;;5042449;28;38486;-80
2022/04/25 00:34:13;;;;;;;15.10;9.80;;;8.40;99.90;;;;;;5064070;28;36303;-80
2022/04/25 00:36:40;;;;;;;14.80;8.60;;;8.40;99.90;;;;;;5064918;28;37309;-80
2022/04/25 00:39:06;;;;;;;15.17;9.47;;;8.40;99.90;;;;;;5061872;28;38681;-79
2022/04/25 00:41:33;;;;;;;14.70;8.80;;;8.40;99.90;;;;;;5067480;28;38595;-79
2022/04/25 00:43:59;;;;;;;16.73;10.40;;;8.40;99.90;;;;;;5036447;28;38678;-80
2022/04/25 00:46:26;;;;;;;13.73;9.23;;;8.30;99.90;;;;;;5067636;28;36883;-81
2022/04/25 00:48:53;;;;;;;14.63;8.97;;;8.30;99.90;;;;;;5052359;28;38160;-80
2022/04/25 00:51:19;;;;;;;14.63;9.53;;;8.30;99.90;;;;;;5067533;28;38694;-80
2022/04/25 00:53:47;;;;;;;14.20;8.60;;;8.30;99.90;;;;;;5057988;28;37578;-80
2022/04/25 00:56:15;;;;;;;20.63;9.37;;;8.20;99.90;;;;;;5073548;28;37067;-79
2022/04/25 00:58:46;;;;;;;13.97;9.50;;;8.30;99.90;;;;;;5051573;28;37864;-80
2022/04/25 01:01:13;;;;;;;17.53;10.13;;;8.20;99.90;;;;;;5076100;28;38710;-79
2022/04/25 01:03:39;;;;;;;15.40;9.20;;;8.20;99.90;;;;;;5072582;28;39049;-79
2022/04/25 01:06:06;;;;;;;13.30;9.67;;;8.20;99.90;;;;;;5049616;28;37006;-80
2022/04/25 01:08:37;;;;;;;15.30;10.17;;;8.20;99.90;;;;;;5058507;28;38070;-79
2022/04/25 01:11:05;;;;;;;17.93;10.23;;;8.20;99.90;;;;;;5051367;28;38035;-80
2022/04/25 01:13:31;;;;;;;24.80;10.20;;;8.20;99.90;;;;;;5073031;28;39079;-80
2022/04/25 01:15:57;;;;;;;18.43;10.60;;;8.20;99.90;;;;;;5050679;28;37566;-80
2022/04/25 01:18:24;;;;;;;16.10;10.50;;;8.10;99.90;;;;;;5048805;28;37777;-79
2022/04/25 01:20:55;;;;;;;17.57;10.73;;;8.10;99.90;;;;;;5055134;28;39187;-80
2022/04/25 01:28:53;;;;;;;19.23;10.70;;;8.10;99.90;;;;;;5065738;28;40077;-79
2022/04/25 01:31:20;;;;;;;23.43;10.13;;;8.10;99.90;;;;;;5074110;28;39931;-82
2022/04/25 01:33:46;;;;;;;16.07;10.07;;;8.00;99.90;;;;;;5067569;28;38455;-79
2022/04/25 01:36:12;;;;;;;17.60;10.17;;;8.00;99.90;;;;;;5064919;28;37281;-80
2022/04/25 01:38:38;;;;;;;14.37;9.83;;;8.00;99.90;;;;;;5053138;28;38120;-80
2022/04/25 01:41:04;;;;;;;15.57;10.10;;;8.10;99.90;;;;;;5073827;28;38768;-79
2022/04/25 01:43:36;;;;;;;17.30;9.67;;;8.10;99.90;;;;;;5047110;28;37525;-82
2022/04/25 01:46:03;;;;;;;17.57;10.57;;;8.10;99.90;;;;;;5041872;28;37294;-79
2022/04/25 01:48:30;;;;;;;15.80;10.57;;;8.10;99.90;;;;;;5061728;28;38935;-81
2022/04/25 01:50:56;;;;;;;12.93;9.07;;;8.10;99.90;;;;;;5048733;28;37742;-81
2022/04/25 01:53:22;;;;;;;16.33;9.73;;;8.20;99.90;;;;;;5065397;28;38178;-81
2022/04/25 01:55:48;;;;;;;13.00;9.23;;;8.20;99.90;;;;;;5044866;28;36159;-81
2022/04/25 01:58:14;;;;;;;16.17;10.07;;;8.20;99.90;;;;;;5064681;28;38714;-78
2022/04/25 02:00:40;;;;;;;14.67;9.23;;;8.30;99.90;;;;;;5048852;28;38515;-81
2022/04/25 02:03:06;;;;;;;14.73;9.40;;;8.30;99.90;;;;;;5045924;28;38487;-79
2022/04/25 02:05:32;;;;;;;15.63;8.57;;;8.30;99.90;;;;;;5047690;28;35450;-80
2022/04/25 02:07:58;;;;;;;16.90;8.90;;;8.20;99.90;;;;;;5050271;28;38400;-80
2022/04/25 02:10:25;;;;;;;14.37;10.10;;;8.20;99.90;;;;;;5061178;28;39735;-80
2022/04/25 02:12:51;;;;;;;17.93;9.17;;;8.20;99.90;;;;;;5042000;28;36488;-79
2022/04/25 02:15:17;;;;;;;16.23;9.40;;;8.20;99.90;;;;;;5063563;28;36841;-80
2022/04/25 02:17:44;;;;;;;17.97;9.00;;;8.20;99.90;;;;;;5049518;28;37773;-80
2022/04/25 02:20:11;;;;;;;18.53;9.23;;;8.20;99.90;;;;;;5066903;28;38992;-80
2022/04/25 02:22:37;;;;;;;20.03;9.70;;;8.20;99.90;;;;;;5065544;28;39093;-79
2022/04/25 02:25:04;;;;;;;15.57;10.20;;;8.20;99.90;;;;;;5047070;28;35965;-80
2022/04/25 02:27:30;;;;;;;19.70;10.07;;;8.30;99.90;;;;;;5052882;28;38688;-79
2022/04/25 02:29:58;;;;;;;16.80;9.63;;;8.30;99.90;;;;;;5048081;28;38385;-79
2022/04/25 02:32:25;;;;;;;16.33;10.17;;;8.30;99.90;;;;;;5042602;28;38831;-79
2022/04/25 02:34:51;;;;;;;15.40;9.40;;;8.30;99.90;;;;;;5054883;28;36601;-80
2022/04/25 02:37:17;;;;;;;18.77;9.20;;;8.30;99.90;;;;;;5055934;28;37794;-79
2022/04/25 02:39:43;;;;;;;15.57;8.97;;;8.30;99.90;;;;;;5072097;28;39116;-80
2022/04/25 02:42:09;;;;;;;12.70;8.50;;;8.40;99.90;;;;;;5055015;28;37756;-79
2022/04/25 02:44:35;;;;;;;14.80;8.80;;;8.40;99.90;;;;;;5074209;28;37452;-79
2022/04/25 02:47:01;;;;;;;11.83;8.27;;;8.40;99.90;;;;;;5073357;28;39389;-79
2022/04/25 02:49:27;;;;;;;15.30;9.03;;;8.50;99.90;;;;;;5066517;28;37345;-80
2022/04/25 02:51:53;;;;;;;18.10;9.90;;;8.50;99.90;;;;;;5047084;28;37783;-80
2022/04/25 02:54:19;;;;;;;12.67;8.70;;;8.60;99.90;;;;;;5052156;28;36349;-80
2022/04/25 02:56:45;;;;;;;15.67;9.20;;;8.60;99.90;;;;;;5068063;28;39106;-79
2022/04/25 02:59:12;;;;;;;18.37;9.03;;;8.60;99.90;;;;;;5067561;28;37688;-80
2022/04/25 03:01:39;;;;;;;16.17;9.30;;;8.60;99.90;;;;;;5053074;28;37411;-80
2022/04/25 03:04:05;;;;;;;15.67;8.40;;;8.50;99.90;;;;;;5053227;28;37242;-79
2022/04/25 03:06:31;;;;;;;12.73;8.30;;;8.60;99.90;;;;;;5061827;28;39727;-79
2022/04/25 03:08:58;;;;;;;11.47;8.00;;;8.60;99.90;;;;;;5066528;28;39098;-79
2022/04/25 03:11:25;;;;;;;13.20;7.53;;;8.70;99.90;;;;;;5063882;28;38910;-79
2022/04/25 03:13:52;;;;;;;14.80;7.97;;;8.70;99.90;;;;;;5064559;28;38075;-79
2022/04/25 03:16:19;;;;;;;13.47;7.80;;;8.70;99.90;;;;;;5048879;28;37896;-79
2022/04/25 03:18:45;;;;;;;18.03;8.90;;;8.70;99.90;;;;;;5044976;28;39270;-80
2022/04/25 03:21:11;;;;;;;16.17;7.97;;;8.70;99.90;;;;;;5052015;28;37300;-79
2022/04/25 03:23:38;;;;;;;14.40;8.37;;;8.70;99.90;;;;;;5065458;28;37610;-79
2022/04/25 03:26:04;;;;;;;18.27;8.67;;;8.70;99.90;;;;;;5047950;28;39163;-80
2022/04/25 03:28:31;;;;;;;13.13;7.43;;;8.70;99.90;;;;;;5049034;28;37728;-79
2022/04/25 03:30:57;;;;;;;13.13;8.40;;;8.70;99.90;;;;;;5049416;28;37986;-79
2022/04/25 03:33:24;;;;;;;12.23;7.90;;;8.70;99.90;;;;;;5051490;28;36154;-79
2022/04/25 03:35:51;;;;;;;18.03;8.00;;;8.80;99.90;;;;;;5068926;28;38769;-79
2022/04/25 03:38:18;;;;;;;13.80;8.10;;;8.80;99.90;;;;;;5051008;28;39042;-78
2022/04/25 03:40:44;;;;;;;17.53;8.33;;;8.80;99.90;;;;;;5066421;28;39017;-79
2022/04/25 03:43:11;;;;;;;14.37;7.80;;;8.80;99.90;;;;;;5043452;28;36397;-80
2022/04/25 03:45:39;;;;;;;19.57;9.37;;;8.80;99.90;;;;;;5069089;28;39602;-79
2022/04/25 03:48:05;;;;;;;17.80;8.47;;;8.70;99.90;;;;;;5070290;28;39671;-79
2022/04/25 03:50:32;;;;;;;17.77;8.83;;;8.70;99.90;;;;;;5048737;28;38568;-79
2022/04/25 03:53:07;;;;;;;14.90;8.93;;;8.60;99.90;;;;;;5023089;28;37473;-79
2022/04/25 03:58:22;;;;;;;15.80;9.13;;;8.60;99.90;;;;;;5065285;28;40484;-79
2022/04/25 04:00:48;;;;;;;12.00;7.67;;;8.60;99.90;;;;;;5052196;28;38448;-79
2022/04/25 04:03:18;;;;;;;15.27;9.20;;;8.60;99.90;;;;;;5044106;28;36540;-80
2022/04/25 04:05:46;;;;;;;16.47;8.67;;;8.60;99.90;;;;;;5047699;28;39098;-79
2022/04/25 04:08:12;;;;;;;12.93;8.00;;;8.60;99.90;;;;;;5063821;28;39402;-79
2022/04/25 04:10:39;;;;;;;20.23;9.77;;;8.60;99.90;;;;;;5063193;28;38292;-80
2022/04/25 04:13:05;;;;;;;19.33;9.07;;;8.60;99.90;;;;;;5066692;28;36920;-79
2022/04/25 04:15:32;;;;;;;20.80;8.83;;;8.60;99.90;;;;;;5068888;28;38517;-79
2022/04/25 04:17:58;;;;;;;22.50;9.57;;;8.50;99.90;;;;;;5029471;28;37765;-80
2022/04/25 04:20:24;;;;;;;20.43;9.80;;;8.50;99.90;;;;;;5069522;28;40056;-79
2022/04/25 04:22:50;;;;;;;17.47;9.47;;;8.40;99.90;;;;;;5064618;28;37258;-79
2022/04/25 04:25:16;;;;;;;22.20;9.90;;;8.30;99.90;;;;;;5062630;28;39071;-80
2022/04/25 04:27:43;;;;;;;19.27;9.13;;;8.30;99.90;;;;;;5047978;28;37813;-81
2022/04/25 04:30:11;;;;;;;20.63;8.57;;;8.20;99.90;;;;;;5065669;28;39402;-80
2022/04/25 04:32:41;;;;;;;20.10;9.73;;;8.20;99.90;;;;;;5063009;28;39024;-81
2022/04/25 04:35:10;;;;;;;18.23;10.90;;;8.20;99.90;;;;;;5062857;28;38488;-80
2022/04/25 04:37:37;;;;;;;18.90;9.40;;;8.20;99.90;;;;;;5067532;28;39629;-81
2022/04/25 04:42:51;;;;;;;21.30;10.83;;;8.20;99.90;;;;;;5065146;28;37965;-81
2022/04/25 04:45:17;;;;;;;19.50;10.00;;;8.30;99.90;;;;;;5044076;28;39471;-79
2022/04/25 04:47:43;;;;;;;18.40;9.83;;;8.30;99.90;;;;;;5063563;28;38686;-79
2022/04/25 04:50:14;;;;;;;18.13;9.73;;;8.40;99.90;;;;;;5045734;28;38989;-80
2022/04/25 04:52:45;;;;;;;20.97;10.27;;;8.50;99.90;;;;;;5046308;28;37262;-79
2022/04/25 04:55:12;;;;;;;15.47;9.27;;;8.60;99.90;;;;;;5049349;28;39279;-80
2022/04/25 04:57:39;;;;;;;18.40;10.43;;;8.60;99.90;;;;;;5073230;28;38257;-79
2022/04/25 05:00:10;;;;;;;21.40;11.93;;;8.70;99.90;;;;;;5072793;28;38171;-79
2022/04/25 05:02:38;;;;;;;23.83;12.83;;;8.70;99.90;;;;;;5056490;28;47365;-79
2022/04/25 05:05:05;;;;;;;24.20;12.40;;;8.70;99.90;;;;;;5044698;28;39326;-78
2022/04/25 05:07:31;;;;;;;20.37;12.13;;;8.80;99.90;;;;;;5053509;28;39183;-79
2022/04/25 05:09:58;;;;;;;19.37;11.40;;;8.80;99.90;;;;;;5054667;28;37172;-79
2022/04/25 05:12:26;;;;;;;18.43;11.30;;;8.80;99.90;;;;;;5075447;28;37976;-79
2022/04/25 05:14:52;;;;;;;24.33;11.67;;;8.90;99.90;;;;;;5048532;28;37717;-75
2022/04/25 05:20:41;;;;;;;18.73;9.43;;;8.90;99.90;;;;;;5044224;28;50532;-80
2022/04/25 05:23:10;;;;;;;18.33;10.43;;;9.00;99.90;;;;;;5051428;28;36414;-78
2022/04/25 05:25:38;;;;;;;14.53;10.97;;;9.00;99.90;;;;;;5067366;28;39337;-80
2022/04/25 05:28:05;;;;;;;17.03;10.00;;;9.10;99.90;;;;;;5077762;28;38390;-80
2022/04/25 05:30:32;;;;;;;17.50;10.47;;;9.10;99.90;;;;;;5058767;28;37251;-78
2022/04/25 05:33:02;;;;;;;19.70;10.57;;;9.20;99.90;;;;;;5049900;28;37560;-77
2022/04/25 05:35:30;;;;;;;16.37;10.50;;;9.30;99.90;;;;;;5047290;28;47591;-80
2022/04/25 05:37:57;;;;;;;16.57;11.33;;;9.30;99.90;;;;;;5054104;28;37540;-79
2022/04/25 05:40:26;;;;;;;19.53;11.43;;;9.40;99.90;;;;;;5054756;28;37228;-78
2022/04/25 05:42:56;;;;;;;22.83;10.93;;;9.50;99.90;;;;;;5076617;28;38865;-80
2022/04/25 05:45:27;;;;;;;19.95;10.50;;;9.60;99.90;;;;;;5025794;22;50140;-78
2022/04/25 05:47:55;;;;;;;19.60;11.30;;;9.70;99.90;;;;;;5036156;28;38894;-78
2022/04/25 05:53:07;;;;;;;16.93;10.77;;;9.70;99.90;;;;;;5040516;28;38009;-78
2022/04/25 05:55:34;;;;;;;18.52;11.10;;;9.70;99.90;;;;;;5044035;28;37739;-77
2022/04/25 05:58:04;;;;;;;21.58;11.57;;;9.90;99.90;;;;;;5036088;28;37642;-78
2022/04/25 06:00:31;;;;;;;20.15;11.50;;;9.90;99.90;;;;;;5023461;28;47678;-78
2022/04/25 06:02:57;;;;;;;22.50;12.38;;;9.90;99.90;;;;;;5027320;28;38119;-77
2022/04/25 06:05:24;;;;;;;20.08;12.18;;;9.90;99.90;;;;;;5040639;28;38855;-78
2022/04/25 06:07:51;;;;;;;20.92;11.35;;;9.90;99.90;;;;;;5023427;28;37844;-78
2022/04/25 06:10:20;;;;;;;20.58;12.30;;;9.90;99.90;;;;;;5022047;28;38250;-78
2022/04/25 06:12:49;;;;;;;19.90;12.30;;;10.00;99.90;;;;;;5033336;28;37254;-78
2022/04/25 06:15:21;;;;;;;19.05;13.32;;;9.90;99.90;;;;;;5024757;28;37790;-77
2022/04/25 06:17:47;;;;;;;21.27;11.63;;;9.90;99.90;;;;;;5033184;28;39088;-76
2022/04/25 06:20:13;;;;;;;23.42;12.48;;;9.90;99.90;;;;;;5022300;28;39929;-78
2022/04/25 06:22:51;;;;;;;17.10;12.27;;;10.00;99.90;;;;;;5021836;28;37587;-78
2022/04/25 06:25:17;;;;;;;20.77;12.48;;;10.00;99.90;;;;;;5022598;28;39578;-77
2022/04/25 06:27:44;;;;;;;18.90;12.00;;;10.00;99.90;;;;;;5025755;28;38969;-79
2022/04/25 06:30:11;;;;;;;19.05;12.48;;;10.00;99.90;;;;;;5038969;28;39458;-78
2022/04/25 06:32:37;;;;;;;22.55;11.70;;;10.00;99.90;;;;;;5025035;28;37964;-79
2022/04/25 06:35:04;;;;;;;16.00;11.20;;;10.10;99.90;;;;;;5032604;28;38727;-78
2022/04/25 06:37:30;;;;;;;17.08;11.65;;;10.10;99.90;;;;;;5028328;28;39370;-80
2022/04/25 06:39:56;;;;;;;18.80;11.65;;;10.10;99.90;;;;;;5025842;28;38688;-80
2022/04/25 06:42:25;;;;;;;19.13;12.50;;;10.20;99.90;;;;;;5048063;28;38202;-78
2022/04/25 06:44:51;;;;;;;14.52;11.50;;;10.10;99.90;;;;;;5028985;28;38440;-79
2022/04/25 06:47:17;;;;;;;16.42;11.05;;;10.10;99.90;;;;;;5024650;28;39656;-78
2022/04/25 06:49:44;;;;;;;18.73;11.48;;;10.30;99.90;;;;;;5039111;28;39163;-79
2022/04/25 06:52:10;;;;;;;16.92;12.00;;;10.30;99.90;;;;;;5025676;28;37908;-78
2022/04/25 06:54:37;;;;;;;18.90;10.95;;;10.20;99.90;;;;;;5023059;28;39489;-78
2022/04/25 06:57:04;;;;;;;17.38;11.60;;;10.30;99.90;;;;;;5044201;28;38690;-78
2022/04/25 06:59:30;;;;;;;17.83;10.65;;;10.30;99.90;;;;;;5047684;28;38324;-78
2022/04/25 07:01:56;;;;;;;15.85;10.93;;;10.20;99.90;;;;;;5030992;28;38278;-78
2022/04/25 07:04:23;;;;;;;13.45;9.90;;;10.10;99.90;;;;;;5047063;28;38639;-80
2022/04/25 07:06:49;;;;;;;17.55;10.55;;;10.10;99.90;;;;;;5038962;28;39257;-77
2022/04/25 07:09:15;;;;;;;17.98;11.25;;;10.00;99.90;;;;;;5046897;28;40320;-78
2022/04/25 07:11:43;;;;;;;15.77;11.63;;;9.90;99.90;;;;;;5048565;28;37901;-77
2022/04/25 07:14:12;;;;;;;15.60;11.95;;;9.90;99.90;;;;;;5046843;28;38138;-78
2022/04/25 07:16:39;;;;;;;15.27;11.13;;;9.80;99.90;;;;;;5036432;28;38346;-81
2022/04/25 07:19:06;;;;;;;16.27;11.38;;;9.80;99.90;;;;;;5040587;28;39421;-78
2022/04/25 07:29:51;;;;;;;16.02;11.00;;;9.90;99.90;;;;;;5044686;28;40238;-79
2022/04/25 07:32:18;;;;;;;15.15;11.32;;;9.90;99.90;;;;;;5045908;28;39453;-78
2022/04/25 07:34:48;;;;;;;18.75;12.75;;;10.00;99.90;;;;;;5043153;28;36911;-79
2022/04/25 07:37:19;;;;;;;16.48;11.75;;;9.90;99.90;;;;;;5042159;28;39492;-79
2022/04/25 07:39:47;;;;;;;17.85;12.43;;;10.00;99.90;;;;;;5043612;28;38601;-77
2022/04/25 07:42:15;;;;;;;15.57;11.18;;;9.90;99.90;;;;;;5035062;28;38172;-79
2022/04/25 07:44:46;;;;;;;13.60;11.52;;;9.90;99.90;;;;;;5042605;28;38053;-80
2022/04/25 07:47:13;;;;;;;16.67;10.50;;;9.90;99.90;;;;;;5027452;28;39633;-79
2022/04/25 07:49:40;;;;;;;13.43;10.07;;;9.90;99.90;;;;;;5029633;28;37556;-79
2022/04/25 07:52:07;;;;;;;15.13;10.02;;;9.90;99.90;;;;;;5037137;28;37877;-78
2022/04/25 07:54:33;;;;;;;13.07;10.25;;;10.00;99.90;;;;;;5037852;28;40660;-78
2022/04/25 07:57:00;;;;;;;15.32;9.85;;;10.10;99.90;;;;;;5041055;28;39298;-78
2022/04/25 07:59:26;;;;;;;11.55;9.25;;;10.40;99.90;;;;;;5040933;28;37200;-78
2022/04/25 08:01:52;;;;;;;10.75;9.05;;;10.70;99.90;;;;;;5019972;28;37580;-78
2022/04/25 08:04:19;;;;;;;12.85;9.13;;;10.80;99.90;;;;;;5037362;28;38345;-78
2022/04/25 08:06:45;;;;;;;12.00;8.70;;;10.90;99.90;;;;;;5025046;28;37621;-80
2022/04/25 08:09:11;;;;;;;9.85;8.27;;;11.20;99.90;;;;;;5048217;28;40230;-80
2022/04/25 08:11:37;;;;;;;11.13;8.40;;;11.90;99.90;;;;;;5043704;28;36982;-80
2022/04/25 08:19:33;;;;;;;12.68;8.18;;;12.50;99.90;;;;;;5045437;28;50701;-81
2022/04/25 08:22:00;;;;;;;12.40;7.28;;;11.90;99.90;;;;;;5040708;28;37191;-80
2022/04/25 08:24:26;;;;;;;13.93;8.02;;;11.50;99.90;;;;;;5005615;28;40908;-81
2022/04/25 08:26:55;;;;;;;12.07;8.10;;;11.30;99.90;;;;;;5021050;28;40835;-81
2022/04/25 08:29:22;;;;;;;10.65;8.38;;;11.40;99.90;;;;;;5028627;28;38665;-81
2022/04/25 08:31:49;;;;;;;13.07;9.90;;;11.50;99.90;;;;;;5022786;28;37193;-80
2022/04/25 08:34:15;;;;;;;14.02;9.98;;;11.60;99.90;;;;;;5025567;28;38567;-82
2022/04/25 08:36:41;;;;;;;18.48;10.23;;;11.60;99.90;;;;;;5016255;28;40313;-80
2022/04/25 08:39:07;;;;;;;14.55;9.60;;;11.30;99.90;;;;;;5031629;28;39665;-81
2022/04/25 08:41:43;;;;;;;16.75;10.77;;;11.20;99.90;;;;;;5024882;28;37657;-79
2022/04/25 08:44:10;;;;;;;14.85;10.85;;;11.10;99.90;;;;;;5026716;28;39314;-80
2022/04/25 08:46:39;;;;;;;15.95;11.15;;;11.00;99.90;;;;;;5036986;28;39666;-80
2022/04/25 08:49:10;;;;;;;18.63;11.63;;;11.10;99.90;;;;;;5011739;28;39783;-81
2022/04/25 08:51:38;;;;;;;16.10;10.90;;;11.00;99.90;;;;;;5042575;28;38415;-81
2022/04/25 08:54:08;;;;;;;15.52;12.05;;;11.00;99.90;;;;;;5051917;28;39722;-81
2022/04/25 08:56:36;;;;;;;15.75;11.25;;;10.90;99.90;;;;;;5050926;28;39065;-79
2022/04/25 08:59:05;;;;;;;12.85;10.70;;;10.80;99.90;;;;;;5024166;28;39226;-78
2022/04/25 09:01:32;;;;;;;17.58;11.07;;;10.80;99.90;;;;;;5029507;28;48837;-79
2022/04/25 09:04:03;;;;;;;16.48;10.52;;;11.00;99.90;;;;;;5026481;28;39737;-79
2022/04/25 09:06:29;;;;;;;14.23;10.13;;;11.00;99.90;;;;;;5038007;28;47554;-79
2022/04/25 09:08:55;;;;;;;13.40;9.35;;;10.90;99.90;;;;;;5037924;28;40341;-80
2022/04/25 09:14:10;;;;;;;14.75;10.07;;;10.70;99.90;;;;;;5030848;28;39400;-79
2022/04/25 09:16:37;;;;;;;16.02;9.52;;;10.70;99.90;;;;;;5027958;28;39636;-78
2022/04/25 09:19:03;;;;;;;12.18;10.05;;;10.80;99.90;;;;;;5037922;28;38178;-79
2022/04/25 09:21:31;;;;;;;16.65;10.50;;;10.90;99.90;;;;;;5035140;28;37695;-77
2022/04/25 09:23:58;;;;;;;12.32;9.18;;;10.90;99.90;;;;;;5032556;28;39331;-78
2022/04/25 09:26:28;;;;;;;12.07;9.88;;;11.00;99.90;;;;;;5018308;28;39051;-80
2022/04/25 09:28:56;;;;;;;16.35;10.75;;;11.10;99.90;;;;;;5006968;28;37413;-79
2022/04/25 09:31:25;;;;;;;15.20;10.40;;;11.10;99.90;;;;;;5034918;28;36270;-77
2022/04/25 09:33:51;;;;;;;12.75;10.38;;;10.80;99.90;;;;;;5033339;28;39098;-77
2022/04/25 09:36:17;;;;;;;16.33;10.80;;;10.70;99.90;;;;;;5019040;28;39332;-78
2022/04/25 09:38:44;;;;;;;16.13;11.55;;;10.70;99.90;;;;;;5018465;28;38339;-77
2022/04/25 09:41:12;;;;;;;11.95;10.18;;;10.70;99.90;;;;;;5030000;28;37344;-77
2022/04/25 09:43:40;;;;;;;12.98;10.18;;;10.70;99.90;;;;;;5045935;28;37833;-77
2022/04/25 09:46:08;;;;;;;17.40;11.68;;;10.80;99.90;;;;;;5040035;28;37623;-77
2022/04/25 09:48:36;;;;;;;13.57;10.73;;;10.90;99.90;;;;;;5043915;28;39162;-78
2022/04/25 09:51:05;;;;;;;14.35;10.93;;;11.10;99.90;;;;;;5025308;28;36518;-78
2022/04/25 09:53:52;;;;;;;17.40;11.95;;;11.30;99.90;;;;;;5043067;28;39790;-78
2022/04/25 09:56:21;;;;;;;15.15;12.13;;;11.30;99.90;;;;;;5045363;28;39569;-78
2022/04/25 09:59:02;;;;;;;14.65;11.45;;;11.70;99.90;;;;;;5044765;28;40240;-79
2022/04/25 10:01:29;;;;;;;14.93;11.43;;;12.00;99.90;;;;;;5026014;28;38458;-80
2022/04/25 10:03:56;;;;;;;15.93;11.40;;;12.20;99.90;;;;;;5039150;28;39725;-79
2022/04/25 10:06:23;;;;;;;16.02;10.85;;;12.10;99.90;;;;;;5026377;28;40592;-81
2022/04/25 10:08:50;;;;;;;15.10;10.90;;;12.00;99.90;;;;;;5042575;28;38554;-80
2022/04/25 10:11:19;;;;;;;15.85;11.57;;;11.80;99.90;;;;;;5043547;28;38947;-80
2022/04/25 10:13:47;;;;;;;15.65;11.05;;;11.70;99.90;;;;;;5043868;28;39402;-81
2022/04/25 10:16:18;;;;;;;14.25;11.10;;;11.80;99.90;;;;;;5045461;28;39702;-79
2022/04/25 10:18:45;;;;;;;19.05;12.27;;;11.60;99.90;;;;;;5039683;28;37848;-79
2022/04/25 10:21:14;;;;;;;17.08;12.45;;;11.50;99.90;;;;;;5020529;28;38222;-79
2022/04/25 10:23:41;;;;;;;18.45;12.90;;;11.30;99.90;;;;;;5037516;28;38795;-80
2022/04/25 10:26:07;;;;;;;15.52;11.65;;;11.20;99.90;;;;;;5021303;28;39782;-80
2022/04/25 10:28:42;;;;;;;16.60;12.90;;;11.10;99.90;;;;;;5038208;28;37523;-79
2022/04/25 10:31:13;;;;;;;17.90;12.50;;;11.00;99.90;;;;;;5034850;28;39085;-80
2022/04/25 10:33:52;;;;;;;17.98;12.52;;;11.00;99.90;;;;;;5039871;28;38883;-80
2022/04/25 10:36:39;;;;;;;18.90;13.35;;;10.90;99.90;;;;;;5028350;28;39679;-80
2022/04/25 10:39:13;;;;;;;18.00;12.05;;;10.80;99.90;;;;;;5045989;28;39106;-78
2022/04/25 10:44:48;;;;;;;17.42;12.80;;;10.70;99.90;;;;;;5043059;28;48820;-78
2022/04/25 10:47:21;;;;;;;14.18;12.10;;;10.60;99.90;;;;;;5039266;28;40485;-78
2022/04/25 10:50:09;;;;;;;18.08;12.98;;;10.50;99.90;;;;;;5043628;28;39321;-79
2022/04/25 10:53:18;;;;;;;15.55;12.70;;;10.50;99.90;;;;;;5031250;28;47324;-77
2022/04/25 10:55:42;;;;;;;15.55;12.35;;;10.40;99.90;;;;;;5012527;28;38776;-78
2022/04/25 10:58:08;;;;;;;17.60;12.75;;;10.50;99.90;;;;;;5020232;28;39572;-78
2022/04/25 11:00:37;;;;;;;16.15;12.93;;;10.50;99.90;;;;;;5042660;28;39239;-77
2022/04/25 11:03:09;;;;;;;18.05;13.38;;;10.50;99.90;;;;;;5025721;28;35897;-77
2022/04/25 11:05:59;;;;;;;21.52;13.10;;;10.60;99.90;;;;;;5019707;28;37990;-78
2022/04/25 11:08:28;;;;;;;21.58;13.13;;;10.50;99.90;;;;;;5019816;28;38947;-78
2022/04/25 11:10:57;;;;;;;16.27;12.45;;;10.60;99.90;;;;;;5041279;28;37980;-78
2022/04/25 11:13:32;;;;;;;16.92;12.75;;;10.60;99.90;;;;;;5026712;28;36136;-80
2022/04/25 11:16:13;;;;;;;21.33;11.93;;;10.60;99.90;;;;;;5029051;28;40100;-79
2022/04/25 11:18:41;;;;;;;19.40;13.38;;;10.80;99.90;;;;;;5039527;28;47125;-80
2022/04/25 11:21:12;;;;;;;16.65;13.00;;;10.80;99.90;;;;;;5042565;28;39084;-80
2022/04/25 11:23:59;;;;;;;19.38;12.55;;;10.80;99.90;;;;;;5025292;28;37463;-79
2022/04/25 11:26:24;;;;;;;15.48;11.93;;;10.70;99.90;;;;;;5014082;28;39216;-79
2022/04/25 11:29:04;;;;;;;18.92;13.23;;;10.60;99.90;;;;;;5034708;28;38133;-78
2022/04/25 11:31:31;;;;;;;19.15;12.60;;;10.50;99.90;;;;;;5035320;28;37154;-77
2022/04/25 11:34:02;;;;;;;18.50;12.98;;;10.40;99.90;;;;;;5022933;28;37046;-78
2022/04/25 11:36:31;;;;;;;18.67;13.25;;;10.30;99.90;;;;;;5003239;28;47081;-78
2022/04/25 11:41:46;;;;;;;19.70;14.52;;;10.10;99.90;;;;;;5028724;28;49371;-78
2022/04/25 11:44:12;;;;;;;18.58;13.48;;;10.10;99.90;;;;;;5021591;28;37380;-78
2022/04/25 11:46:39;;;;;;;19.58;14.02;;;10.10;99.90;;;;;;5025308;28;39334;-78
2022/04/25 11:49:06;;;;;;;18.80;13.77;;;10.00;99.90;;;;;;5040538;28;40037;-78
2022/04/25 11:51:35;;;;;;;19.80;14.48;;;10.10;99.90;;;;;;5045638;28;37642;-79
2022/04/25 11:54:04;;;;;;;20.25;13.70;;;10.30;99.90;;;;;;5021271;28;38611;-79
2022/04/25 11:56:33;;;;;;;20.27;13.80;;;10.30;99.90;;;;;;5021329;28;37485;-80
2022/04/25 11:59:05;;;;;;;21.25;14.38;;;10.50;99.90;;;;;;5012992;28;38865;-78
2022/04/25 12:01:39;;;;;;;19.30;13.70;;;10.40;99.90;;;;;;5015019;28;47973;-79
2022/04/25 12:04:17;;;;;;;20.63;14.40;;;10.50;99.90;;;;;;5002072;28;36569;-79
2022/04/25 12:06:58;;;;;;;16.70;12.95;;;10.50;99.90;;;;;;5038467;28;37962;-79
2022/04/25 12:18:18;;;;;;;16.13;12.25;;;11.10;99.90;;;;;;5045878;28;39073;-81
2022/04/25 12:20:50;;;;;;;16.17;10.85;;;11.50;99.90;;;;;;5025636;28;47444;-81
2022/04/25 12:23:24;;;;;;;16.13;12.55;;;11.90;99.90;;;;;;5041829;28;39602;-81
2022/04/25 12:25:50;;;;;;;17.38;11.98;;;12.10;99.90;;;;;;5040472;28;37131;-81
2022/04/25 12:28:23;;;;;;;16.25;12.23;;;12.20;99.90;;;;;;5046708;28;38524;-82
2022/04/25 12:30:54;;;;;;;15.32;11.55;;;12.70;99.90;;;;;;5031088;28;37873;-80
2022/04/25 12:33:24;;;;;;;19.70;12.95;;;12.60;99.90;;;;;;5043046;28;40015;-82
2022/04/25 12:36:10;;;;;;;18.23;12.25;;;12.50;99.90;;;;;;5051140;28;38654;-81
2022/04/25 12:38:42;;;;;;;18.60;12.45;;;11.90;99.90;;;;;;5046862;28;46903;-80
2022/04/25 12:41:11;;;;;;;15.90;12.27;;;11.60;99.90;;;;;;5047654;28;39954;-81
2022/04/25 12:43:38;;;;;;;18.58;12.55;;;11.40;99.90;;;;;;5033372;28;39074;-81
2022/04/25 12:46:07;;;;;;;20.25;13.23;;;11.40;99.90;;;;;;5036981;28;38471;-81
2022/04/25 12:49:29;;;;;;;17.77;12.82;;;11.70;99.90;;;;;;5062546;28;39181;-82
2022/04/25 12:52:26;;;;;;;19.95;12.85;;;12.00;99.90;;;;;;5070898;28;40119;-82
2022/04/25 12:58:06;;;;;;;15.27;11.52;;;12.90;99.90;;;;;;5418827;22;20052;-83
2022/04/25 13:14:45;;;;;;;16.00;12.90;;;12.60;99.90;;;;;;5000315;23;20054;-83
2022/04/25 13:18:13;;;;;;;17.13;12.18;;;11.90;99.90;;;;;;5399098;23;20034;31
2022/04/25 13:23:48;;;;;;;17.90;13.13;;;11.90;99.90;;;;;;5431533;23;20058;-83
2022/04/25 13:26:15;;;;;;;19.70;11.65;;;12.10;99.90;;;;;;4959890;28;38242;-83
2022/04/25 13:28:41;;;;;;;15.05;10.55;;;12.30;99.90;;;;;;4999655;23;38884;-82
2022/04/25 13:31:10;;;;;;;14.57;10.60;;;12.50;99.90;;;;;;4935707;28;38122;-82
2022/04/25 13:33:41;;;;;;;14.77;10.88;;;12.80;99.90;;;;;;4956591;28;37698;-82
2022/04/25 13:36:12;;;;;;;14.93;10.85;;;13.10;99.90;;;;;;4913569;29;39012;-82
2022/04/25 13:38:49;;;;;;;15.20;9.77;;;13.50;99.90;;;;;;4947498;28;39973;-82
2022/04/25 13:44:08;;;;;;;14.63;10.18;;;13.80;99.90;;;;;;4957365;28;20505;-81
2022/04/25 13:51:49;;;;;;;14.60;10.80;;;12.80;99.90;;;;;;5011317;23;20043;-81
2022/04/25 13:57:39;;;;;;;14.82;10.73;;;12.20;99.90;;;;;;4994876;26;20546;-82
2022/04/25 14:00:30;;;;;;;18.23;11.43;;;12.00;99.90;;;;;;4944335;28;37973;-83
2022/04/25 14:03:11;;;;;;;15.75;11.82;;;11.80;99.90;;;;;;4966370;28;37474;-83